createdAt,value
2022-10-17T00:00:59.627Z,101432.00
2022-10-17T00:06:04.963Z,101437.00
2022-10-17T00:11:04.399Z,101441.80
2022-10-17T00:16:00.171Z,101449.40
2022-10-17T00:20:55.265Z,101453.40
2022-10-17T00:25:59.735Z,101453.20
2022-10-17T00:30:59.594Z,101445.20
2022-10-17T00:36:04.072Z,101446.80
2022-10-17T00:40:59.087Z,101445.60
2022-10-17T00:45:54.062Z,101462.00
2022-10-17T00:50:51.129Z,101454.20
2022-10-17T00:55:53.313Z,101470.00
2022-10-17T01:00:50.301Z,101467.20
2022-10-17T01:05:46.651Z,101463.40
2022-10-17T01:10:57.161Z,101460.40
2022-10-17T01:16:09.191Z,101459.80
2022-10-17T01:21:33.847Z,101455.40
2022-10-17T01:26:48.742Z,101465.00
2022-10-17T01:31:52.569Z,101458.00
2022-10-17T01:36:56.963Z,101455.00
2022-10-17T01:42:01.814Z,101453.60
2022-10-17T01:47:03.475Z,101458.20
2022-10-17T01:52:06.693Z,101460.80
2022-10-17T01:57:08.264Z,101454.40
2022-10-17T02:02:05.332Z,101446.80
2022-10-17T02:07:10.611Z,101461.40
2022-10-17T02:12:34.139Z,101467.80
2022-10-17T02:17:44.338Z,101470.40
2022-10-17T02:22:47.164Z,101463.60
2022-10-17T02:27:52.743Z,101460.40
2022-10-17T02:32:56.680Z,101467.60
2022-10-17T02:37:54.110Z,101469.20
2022-10-17T02:42:52.444Z,101483.00
2022-10-17T02:47:59.342Z,101490.20
2022-10-17T02:53:02.274Z,101491.00
2022-10-17T02:58:03.602Z,101493.20
2022-10-17T03:02:58.604Z,101499.80
2022-10-17T03:07:54.451Z,101510.00
2022-10-17T03:12:49.341Z,101521.40
2022-10-17T03:22:44.078Z,101525.00
2022-10-17T03:27:38.946Z,101524.60
2022-10-17T03:32:35.983Z,101531.80
2022-10-17T03:37:31.213Z,101538.80
2022-10-17T03:42:26.966Z,101536.20
2022-10-17T03:47:22.414Z,101533.20
2022-10-17T03:52:17.439Z,101521.40
2022-10-17T03:57:13.873Z,101519.60
2022-10-17T04:02:09.080Z,101525.40
2022-10-17T04:07:03.922Z,101536.60
2022-10-17T04:11:59.868Z,101538.20
2022-10-17T04:16:55.193Z,101537.80
2022-10-17T04:21:50.212Z,101556.00
2022-10-17T04:26:45.800Z,101556.40
2022-10-17T04:31:41.678Z,101550.40
2022-10-17T04:36:58.278Z,101549.80
2022-10-17T04:41:55.971Z,101555.80
2022-10-17T04:46:51.312Z,101565.00
2022-10-17T04:51:46.411Z,101573.20
2022-10-17T04:57:01.940Z,101576.00
2022-10-17T05:01:57.029Z,101574.00
2022-10-17T05:06:52.128Z,101578.40
2022-10-17T05:12:22.892Z,101595.00
2022-10-17T05:17:18.557Z,101604.80
2022-10-17T05:22:13.772Z,101609.80
2022-10-17T05:27:09.374Z,101601.00
2022-10-17T05:32:05.420Z,101597.00
2022-10-17T05:37:02.654Z,101622.80
2022-10-17T05:41:58.448Z,101632.20
2022-10-17T05:46:53.598Z,101633.40
2022-10-17T05:51:49.262Z,101648.60
2022-10-17T05:56:44.306Z,101649.60
2022-10-17T06:01:39.829Z,101661.00
2022-10-17T06:06:37.769Z,101659.40
2022-10-17T06:11:33.775Z,101656.40
2022-10-17T06:16:29.172Z,101650.20
2022-10-17T06:21:26.709Z,101663.60
2022-10-17T06:26:29.690Z,101657.40
2022-10-17T06:31:24.290Z,101655.80
2022-10-17T06:36:19.695Z,101666.20
2022-10-17T06:41:18.844Z,101674.60
2022-10-17T06:46:16.709Z,101684.40
2022-10-17T06:51:21.985Z,101683.40
2022-10-17T06:56:21.386Z,101694.60
2022-10-17T07:01:44.574Z,101711.40
2022-10-17T07:06:42.688Z,101705.20
2022-10-17T07:11:47.054Z,101698.00
2022-10-17T07:16:45.873Z,101699.40
2022-10-17T07:21:46.770Z,101704.60
2022-10-17T07:26:42.012Z,101707.40
2022-10-17T07:31:36.932Z,101703.60
2022-10-17T07:36:31.491Z,101707.00
2022-10-17T07:41:28.471Z,101712.00
2022-10-17T07:46:24.101Z,101727.60
2022-10-17T07:51:21.458Z,101734.40
2022-10-17T07:56:16.800Z,101735.40
2022-10-17T08:01:15.389Z,101746.40
2022-10-17T08:06:11.690Z,101746.80
2022-10-17T08:11:09.565Z,101755.80
2022-10-17T08:16:08.195Z,101761.60
2022-10-17T08:21:05.612Z,101757.40
2022-10-17T08:26:03.915Z,101759.80
2022-10-17T08:31:06.856Z,101753.60
2022-10-17T08:36:02.788Z,101746.40
2022-10-17T08:41:02.052Z,101749.80
2022-10-17T08:46:02.637Z,101752.80
2022-10-17T08:51:03.310Z,101753.00
2022-10-17T08:56:01.252Z,101744.20
2022-10-17T09:01:12.059Z,101743.00
2022-10-17T09:06:23.902Z,101742.40
2022-10-17T09:11:42.397Z,101737.80
2022-10-17T09:17:02.465Z,101727.40
2022-10-17T09:22:04.113Z,101731.40
2022-10-17T09:26:59.022Z,101734.80
2022-10-17T09:32:10.926Z,101729.80
2022-10-17T09:37:13.345Z,101732.20
2022-10-17T09:42:12.613Z,101742.80
2022-10-17T09:47:26.038Z,101735.20
2022-10-17T09:52:27.186Z,101732.40
2022-10-17T09:57:23.252Z,101728.40
2022-10-17T10:02:32.646Z,101725.60
2022-10-17T10:07:32.279Z,101725.80
2022-10-17T10:12:30.972Z,101720.80
2022-10-17T10:17:42.126Z,101722.60
2022-10-17T10:22:37.294Z,101717.00
2022-10-17T10:32:35.461Z,101707.80
2022-10-17T10:37:39.187Z,101712.00
2022-10-17T10:42:39.693Z,101720.00
2022-10-17T10:47:34.876Z,101708.60
2022-10-17T10:52:41.400Z,101705.80
2022-10-17T10:57:39.371Z,101706.60
2022-10-17T11:02:43.117Z,101702.80
2022-10-17T11:07:46.653Z,101706.00
2022-10-17T11:12:48.958Z,101708.40
2022-10-17T11:17:52.950Z,101699.00
2022-10-17T11:22:53.813Z,101697.00
2022-10-17T11:27:49.355Z,101693.20
2022-10-17T11:32:50.831Z,101695.00
2022-10-17T11:37:53.532Z,101699.80
2022-10-17T11:42:58.718Z,101701.00
2022-10-17T11:48:00.548Z,101703.80
2022-10-17T11:53:04.140Z,101712.80
2022-10-17T11:58:23.756Z,101709.40
2022-10-17T12:03:45.266Z,101708.60
2022-10-17T12:08:54.127Z,101710.40
2022-10-17T12:13:54.506Z,101713.40
2022-10-17T12:18:52.744Z,101708.60
2022-10-17T12:23:56.114Z,101701.40
2022-10-17T12:28:51.358Z,101701.40
2022-10-17T12:33:53.181Z,101696.60
2022-10-17T12:38:51.761Z,101691.20
2022-10-17T12:49:19.428Z,101678.40
2022-10-17T12:54:17.658Z,101672.80
2022-10-17T12:59:20.651Z,101671.60
2022-10-17T13:04:16.588Z,101667.00
2022-10-17T13:09:29.131Z,101666.60
2022-10-17T13:14:27.068Z,101673.60
2022-10-17T13:19:24.835Z,101669.80
2022-10-17T13:24:31.028Z,101667.20
2022-10-17T13:29:29.184Z,101669.40
2022-10-17T13:34:27.808Z,101664.20
2022-10-17T13:39:38.222Z,101655.40
2022-10-17T13:44:43.446Z,101651.00
2022-10-17T13:49:43.632Z,101647.20
2022-10-17T13:54:41.855Z,101650.20
2022-10-17T13:59:48.330Z,101647.80
2022-10-17T14:05:16.170Z,101647.20
2022-10-17T14:09:59.251Z,101645.20
2022-10-17T14:15:10.233Z,101639.80
2022-10-17T14:20:48.276Z,101633.20
2022-10-17T14:25:36.539Z,101636.00
2022-10-17T14:30:56.922Z,101635.00
2022-10-17T14:35:54.344Z,101624.40
2022-10-17T14:41:04.836Z,101617.20
2022-10-17T14:46:17.275Z,101623.40
2022-10-17T14:51:16.301Z,101618.00
2022-10-17T14:56:26.636Z,101611.80
2022-10-17T15:01:22.232Z,101624.40
2022-10-17T15:06:24.132Z,101628.60
2022-10-17T15:11:21.544Z,101632.20
2022-10-17T15:16:21.058Z,101627.20
2022-10-17T15:21:26.653Z,101621.20
2022-10-17T15:26:35.187Z,101628.80
2022-10-17T15:31:32.805Z,101632.60
2022-10-17T15:36:36.167Z,101629.40
2022-10-17T15:41:34.487Z,101626.20
2022-10-17T15:46:34.770Z,101628.00
2022-10-17T15:51:33.519Z,101619.40
2022-10-17T15:56:35.374Z,101624.60
2022-10-17T16:01:34.172Z,101625.40
2022-10-17T16:06:29.883Z,101622.80
2022-10-17T16:11:33.427Z,101613.60
2022-10-17T16:16:28.832Z,101618.00
2022-10-17T16:21:27.992Z,101613.80
2022-10-17T16:26:23.492Z,101596.80
2022-10-17T16:31:24.787Z,101596.00
2022-10-17T16:36:20.302Z,101594.00
2022-10-17T16:41:23.574Z,101591.40
2022-10-17T16:46:19.486Z,101590.80
2022-10-17T16:51:17.852Z,101592.60
2022-10-17T16:56:17.445Z,101588.00
2022-10-17T17:01:15.490Z,101595.60
2022-10-17T17:06:20.917Z,101595.40
2022-10-17T17:11:19.785Z,101588.00
2022-10-17T17:16:18.047Z,101588.00
2022-10-17T17:21:15.229Z,101588.00
2022-10-17T17:26:17.948Z,101593.60
2022-10-17T17:31:16.625Z,101591.20
2022-10-17T17:36:16.791Z,101587.60
2022-10-17T17:41:13.769Z,101586.20
2022-10-17T17:46:09.623Z,101587.80
2022-10-17T17:51:08.404Z,101588.20
2022-10-17T17:56:06.101Z,101586.80
2022-10-17T18:01:01.745Z,101588.00
2022-10-17T18:05:56.566Z,101583.40
2022-10-17T18:10:58.510Z,101582.80
2022-10-17T18:15:59.341Z,101580.00
2022-10-17T18:20:55.323Z,101586.40
2022-10-17T18:25:57.271Z,101583.60
2022-10-17T18:30:57.533Z,101580.20
2022-10-17T18:35:54.994Z,101580.80
2022-10-17T18:41:03.573Z,101581.40
2022-10-17T18:46:05.156Z,101571.80
2022-10-17T18:51:00.510Z,101566.00
2022-10-17T18:55:56.242Z,101560.40
2022-10-17T19:00:52.324Z,101566.60
2022-10-17T19:05:47.682Z,101570.00
2022-10-17T19:10:43.632Z,101568.40
2022-10-17T19:15:39.761Z,101564.20
2022-10-17T19:20:35.712Z,101562.80
2022-10-17T19:25:33.410Z,101566.40
2022-10-17T19:30:53.430Z,101551.20
2022-10-17T19:35:57.294Z,101554.80
2022-10-17T19:40:53.561Z,101557.00
2022-10-17T19:45:57.646Z,101553.00
2022-10-17T19:50:53.056Z,101556.40
2022-10-17T19:55:51.125Z,101551.60
2022-10-17T20:00:50.278Z,101549.20
2022-10-17T20:05:46.227Z,101553.40
2022-10-17T20:10:43.489Z,101543.40
2022-10-17T20:15:39.652Z,101537.80
2022-10-17T20:20:36.761Z,101534.80
2022-10-17T20:25:33.893Z,101530.80
2022-10-17T20:30:29.090Z,101523.80
2022-10-17T20:37:03.483Z,101519.20
2022-10-17T20:43:38.666Z,101513.40
2022-10-17T20:48:36.834Z,101511.80
2022-10-17T20:58:58.522Z,101495.40
2022-10-17T21:03:54.334Z,101492.40
2022-10-17T21:08:52.536Z,101482.60
2022-10-17T21:13:53.872Z,101482.60
2022-10-17T21:18:49.132Z,101490.20
2022-10-17T21:23:48.702Z,101490.00
2022-10-17T21:28:46.137Z,101488.20
2022-10-17T21:33:43.588Z,101477.60
2022-10-17T21:38:39.603Z,101474.20
2022-10-17T21:43:35.602Z,101474.20
2022-10-17T21:48:30.527Z,101473.60
2022-10-17T21:53:26.624Z,101473.00
2022-10-17T21:58:23.913Z,101461.40
2022-10-17T22:03:19.315Z,101457.00
2022-10-17T22:08:15.640Z,101457.60
2022-10-17T22:13:13.397Z,101457.80
2022-10-17T22:18:09.583Z,101451.40
2022-10-17T22:23:05.925Z,101455.60
2022-10-17T22:28:01.279Z,101458.40
2022-10-17T22:32:56.274Z,101455.80
2022-10-17T22:37:51.569Z,101455.40
2022-10-17T22:42:46.247Z,101449.00
2022-10-17T22:47:41.141Z,101448.80
2022-10-17T22:52:35.910Z,101445.20
2022-10-17T22:57:31.007Z,101444.40
2022-10-17T23:02:26.103Z,101440.60
2022-10-17T23:07:22.707Z,101443.60
2022-10-17T23:12:18.807Z,101439.60
2022-10-17T23:17:14.525Z,101441.80
2022-10-17T23:22:10.095Z,101438.80
2022-10-17T23:27:04.833Z,101441.80
2022-10-17T23:32:00.903Z,101443.60
2022-10-17T23:36:55.672Z,101443.40
2022-10-17T23:41:54.285Z,101441.00
2022-10-17T23:46:49.286Z,101437.40
2022-10-17T23:51:44.854Z,101439.40
2022-10-17T23:56:40.234Z,101431.00
